createdAt,value
2018-11-26T08:53:42.349Z,14.97
2018-11-26T08:56:16.869Z,15.60
2018-11-26T08:58:53.468Z,16.17
2018-11-26T09:01:31.094Z,16.50
2018-11-26T09:04:08.688Z,16.50
2018-11-26T09:06:41.934Z,16.17
2018-11-26T09:09:14.287Z,19.83
2018-11-26T09:11:47.102Z,18.13
2018-11-26T09:14:18.938Z,20.70
2018-11-26T09:16:49.487Z,21.23
2018-11-26T09:19:21.354Z,19.57
2018-11-26T09:21:52.230Z,20.60
2018-11-26T09:24:22.799Z,22.73
2018-11-26T09:26:53.321Z,24.77
2018-11-26T09:29:24.345Z,25.03
2018-11-26T09:31:55.005Z,25.30
2018-11-26T09:34:25.730Z,25.90
2018-11-26T09:36:56.301Z,29.83
2018-11-26T09:39:26.532Z,28.27
2018-11-26T09:41:56.961Z,29.70
2018-11-26T09:44:26.515Z,32.33
2018-11-26T09:46:56.143Z,30.23
2018-11-26T09:49:25.695Z,28.40
2018-11-26T09:51:55.221Z,18.70
2018-11-26T09:54:26.052Z,33.17
2018-11-26T09:56:54.511Z,34.37
2018-11-26T09:59:24.638Z,35.90
2018-11-26T10:01:54.176Z,37.63
2018-11-26T10:04:23.781Z,36.73
2018-11-26T10:06:53.930Z,38.53
2018-11-26T10:09:24.197Z,34.37
2018-11-26T10:11:53.804Z,39.33
2018-11-26T10:14:23.045Z,39.63
2018-11-26T10:16:52.764Z,40.97
2018-11-26T10:19:22.555Z,37.00
2018-11-26T10:21:52.464Z,40.77
2018-11-26T10:24:22.488Z,40.37
2018-11-26T10:26:52.599Z,39.20
2018-11-26T10:29:22.223Z,40.63
2018-11-26T10:31:51.629Z,36.60
2018-11-26T10:34:21.098Z,34.37
2018-11-26T10:36:50.853Z,38.10
2018-11-26T10:39:20.841Z,38.53
2018-11-26T10:41:50.634Z,36.97
2018-11-26T10:44:20.032Z,37.87
2018-11-26T10:46:50.253Z,37.37
2018-11-26T10:49:19.891Z,39.10
2018-11-26T10:51:49.944Z,40.87
2018-11-26T10:54:20.037Z,38.37
2018-11-26T10:56:49.743Z,43.73
2018-11-26T10:59:19.328Z,40.37
2018-11-26T11:01:53.412Z,40.00
2018-11-26T11:04:23.113Z,40.90
2018-11-26T11:06:55.869Z,41.23
2018-11-26T11:09:22.831Z,38.97
2018-11-26T11:11:52.529Z,41.13
2018-11-26T12:00:22.931Z,48.30
2018-11-26T12:02:53.987Z,49.30
2018-11-26T12:05:24.312Z,44.27
2018-11-26T12:07:55.287Z,34.23
2018-11-26T12:10:26.598Z,44.27
2018-11-26T12:12:57.228Z,39.07
2018-11-26T12:15:27.869Z,42.80
2018-11-26T12:17:58.385Z,46.43
2018-11-26T12:20:28.795Z,53.27
2018-11-26T12:22:58.908Z,51.63
2018-11-26T12:25:28.940Z,47.60
2018-11-26T12:27:58.713Z,48.40
2018-11-26T12:30:31.355Z,48.70
2018-11-26T12:33:01.207Z,43.87
2018-11-26T12:35:31.289Z,45.57
2018-11-26T12:38:02.625Z,46.10
2018-11-26T12:40:32.705Z,40.60
2018-11-26T12:43:04.117Z,41.23
2018-11-26T12:45:34.840Z,40.83
2018-11-26T12:48:04.915Z,39.90
2018-11-26T12:50:34.909Z,39.87
2018-11-26T12:53:05.108Z,39.77
2018-11-26T12:55:35.682Z,39.30
2018-11-26T12:58:05.967Z,38.70
2018-11-26T13:00:36.599Z,36.40
2018-11-26T13:03:09.576Z,36.33
2018-11-26T13:05:39.170Z,37.07
2018-11-26T13:08:10.300Z,36.60
2018-11-26T13:10:40.184Z,33.80
2018-11-26T13:13:11.061Z,36.13
2018-11-26T13:15:40.726Z,37.57
2018-11-26T13:18:11.004Z,35.80
2018-11-26T13:20:40.864Z,37.70
2018-11-26T13:23:10.673Z,39.43
2018-11-26T13:25:42.017Z,38.70
2018-11-26T13:28:11.577Z,41.33
2018-11-26T13:30:44.180Z,39.60
2018-11-26T13:33:16.404Z,39.43
2018-11-26T13:35:49.181Z,40.27
2018-11-26T13:38:20.109Z,40.53
2018-11-26T13:40:49.717Z,41.70
2018-11-26T13:43:19.561Z,40.23
2018-11-26T13:45:49.891Z,41.87
2018-11-26T13:48:20.170Z,40.00
2018-11-26T13:50:54.974Z,42.20
2018-11-26T13:53:25.204Z,37.00
2018-11-26T13:55:54.639Z,36.97
2018-11-26T13:58:24.190Z,39.90
2018-11-26T14:00:54.163Z,39.10
2018-11-26T14:03:23.365Z,38.33
2018-11-26T14:05:53.497Z,40.13
2018-11-26T14:08:22.692Z,38.77
2018-11-26T14:10:52.323Z,45.70
2018-11-26T14:13:21.915Z,39.47
2018-11-26T14:15:51.577Z,37.70
2018-11-26T14:18:21.031Z,39.67
2018-11-26T14:20:50.535Z,37.63
2018-11-26T14:23:20.601Z,37.80
2018-11-26T14:25:50.168Z,35.53
2018-11-26T14:28:19.767Z,37.33
2018-11-26T14:30:49.239Z,37.43
2018-11-26T14:33:19.077Z,39.87
2018-11-26T14:35:48.469Z,37.90
2018-11-26T14:38:18.063Z,39.63
2018-11-26T14:40:49.498Z,41.03
2018-11-26T14:43:18.965Z,41.00
2018-11-26T14:45:48.554Z,39.27
2018-11-26T14:48:17.945Z,39.40
2018-11-26T14:50:48.130Z,39.07
2018-11-26T14:53:18.633Z,39.80
2018-11-26T14:55:48.013Z,40.43
2018-11-26T14:58:17.572Z,38.23
2018-11-26T15:00:47.239Z,38.80
2018-11-26T15:03:16.829Z,38.70
2018-11-26T15:05:46.612Z,37.83
2018-11-26T15:08:16.597Z,39.07
2018-11-26T15:10:46.211Z,37.20
2018-11-26T15:13:15.702Z,37.03
2018-11-26T15:15:44.793Z,36.00
2018-11-26T15:18:14.625Z,38.40
2018-11-26T15:20:44.490Z,38.10
2018-11-26T15:23:14.045Z,36.57
2018-11-26T15:25:43.201Z,36.70
2018-11-26T15:28:13.963Z,36.70
2018-11-26T15:30:43.437Z,39.00
2018-11-26T15:33:12.948Z,38.80
2018-11-26T15:35:43.297Z,36.23
2018-11-26T15:38:12.765Z,36.50
2018-11-26T15:40:42.680Z,38.63
2018-11-26T15:43:12.457Z,37.40
2018-11-26T15:45:41.945Z,36.63
2018-11-26T15:48:12.802Z,37.47
2018-11-26T15:50:42.559Z,37.67
2018-11-26T15:53:12.062Z,38.40
2018-11-26T15:55:41.410Z,37.63
2018-11-26T15:58:11.267Z,37.57
2018-11-26T16:00:41.024Z,38.43
2018-11-26T16:03:10.981Z,36.87
2018-11-26T16:05:40.633Z,36.20
2018-11-26T16:08:14.198Z,36.13
2018-11-26T16:10:43.988Z,34.97
2018-11-26T16:13:15.134Z,35.53
2018-11-26T16:15:45.724Z,34.40
2018-11-26T16:18:19.035Z,37.13
2018-11-26T16:20:48.722Z,37.30
2018-11-26T16:23:18.191Z,38.50
2018-11-26T16:25:49.031Z,38.57
2018-11-26T16:28:20.607Z,37.63
2018-11-26T16:30:50.342Z,37.67
2018-11-26T16:33:19.974Z,38.43
2018-11-26T16:35:49.084Z,40.30
2018-11-26T16:38:18.691Z,39.97
2018-11-26T16:40:48.541Z,38.40
2018-11-26T16:43:17.960Z,40.17
2018-11-26T16:45:47.773Z,40.43
2018-11-26T16:48:17.596Z,38.60
2018-11-26T16:50:47.256Z,37.90
2018-11-26T16:53:19.393Z,37.53
2018-11-26T16:55:46.464Z,36.67
2018-11-26T16:58:16.462Z,38.50
2018-11-26T17:00:45.817Z,37.10
2018-11-26T17:03:15.414Z,34.37
2018-11-26T17:05:44.991Z,35.07
2018-11-26T17:08:15.674Z,33.50
2018-11-26T17:10:45.109Z,32.67
2018-11-26T17:13:15.391Z,31.43
